Terminal Aerodrome Forecast
Issued by NWS

Home | Current Version | Previous Version | Text Only | Print | Product List | Glossary On
Versions: 1 2 3 4 5 6 7 8 9 10 11 12 13 14 15 16 17 18 19 20
731
FTUS43 KIWX 240228 AAA
TAFSBN
TAF AMD
KSBN 240228Z 2402/2424 31008KT P6SM OVC011
     FM241100 06006KT P6SM VCSH OVC015
     FM241800 10010KT P6SM OVC025
     FM242100 10011KT P6SM -RA OVC015
     FM242300 11012KT P6SM -RA OVC008=

USA.gov is the U.S. government's official web portal to all federal, state and local government web resources and services.